createdAt,value
2023-10-10T00:03:33.893Z,8.22
2023-10-10T00:10:01.550Z,8.21
2023-10-10T00:16:12.219Z,8.20
2023-10-10T00:23:19.993Z,8.22
2023-10-10T00:29:45.428Z,8.26
2023-10-10T00:37:01.876Z,8.29
2023-10-10T00:44:29.829Z,8.34
2023-10-10T00:50:49.638Z,8.36
2023-10-10T00:57:23.247Z,8.36
2023-10-10T01:04:07.448Z,8.37
2023-10-10T01:11:05.581Z,8.37
2023-10-10T01:17:41.408Z,8.38
2023-10-10T01:25:01.980Z,8.42
2023-10-10T01:31:54.293Z,8.43
2023-10-10T01:37:43.658Z,8.45
2023-10-10T01:43:26.377Z,8.50
2023-10-10T01:49:49.469Z,8.57
2023-10-10T02:03:40.834Z,8.63
2023-10-10T02:10:07.229Z,8.60
2023-10-10T02:16:12.352Z,8.57
2023-10-10T02:22:14.326Z,8.60
2023-10-10T02:29:05.420Z,8.65
2023-10-10T02:42:21.338Z,8.69
2023-10-10T02:48:34.007Z,8.69
2023-10-10T03:02:54.536Z,8.64
2023-10-10T03:08:45.800Z,8.60
2023-10-10T03:22:09.709Z,8.55
2023-10-10T03:28:10.921Z,8.53
2023-10-10T03:34:53.324Z,8.52
2023-10-10T03:41:28.790Z,8.55
2023-10-10T03:47:58.271Z,8.57
2023-10-10T03:54:17.973Z,8.56
2023-10-10T04:01:22.855Z,8.56
2023-10-10T04:07:53.053Z,8.56
2023-10-10T04:14:40.087Z,8.57
2023-10-10T04:20:46.341Z,8.60
2023-10-10T04:26:24.511Z,8.63
2023-10-10T04:31:58.971Z,8.67
2023-10-10T04:37:47.213Z,8.69
2023-10-10T04:44:11.064Z,8.68
2023-10-10T04:51:11.626Z,8.66
2023-10-10T04:58:06.116Z,8.64
2023-10-10T05:04:36.008Z,8.62
2023-10-10T05:10:56.810Z,8.64
2023-10-10T05:16:55.088Z,8.63
2023-10-10T05:23:29.516Z,8.61
2023-10-10T05:29:55.783Z,8.62
2023-10-10T05:36:32.900Z,8.67
2023-10-10T05:43:16.040Z,8.77
2023-10-10T05:49:42.236Z,8.86
2023-10-10T05:55:00.668Z,8.96
2023-10-10T06:00:43.343Z,9.04
2023-10-10T06:06:00.819Z,9.13
2023-10-10T06:12:18.935Z,9.19
2023-10-10T06:18:10.301Z,9.26
2023-10-10T06:24:03.975Z,9.31
2023-10-10T06:29:55.343Z,9.37
2023-10-10T06:35:40.030Z,9.46
2023-10-10T06:42:09.405Z,9.58
2023-10-10T06:47:56.003Z,9.74
2023-10-10T06:53:57.688Z,9.92
2023-10-10T07:00:13.980Z,10.02
2023-10-10T07:06:04.806Z,10.04
2023-10-10T07:11:41.727Z,10.16
2023-10-10T07:17:20.381Z,10.24
2023-10-10T07:23:14.749Z,10.37
2023-10-10T07:29:09.064Z,10.63
2023-10-10T07:35:29.755Z,10.87
2023-10-10T07:41:15.894Z,11.07
2023-10-10T07:47:54.611Z,11.16
2023-10-10T07:54:34.971Z,11.31
2023-10-10T08:00:56.532Z,11.55
2023-10-10T08:06:48.070Z,11.67
2023-10-10T08:13:26.098Z,11.83
2023-10-10T08:19:42.033Z,11.88
2023-10-10T08:26:29.632Z,11.94
2023-10-10T08:32:49.402Z,12.17
2023-10-10T08:39:37.239Z,12.44
2023-10-10T08:45:56.628Z,12.30
2023-10-10T08:52:10.467Z,12.22
2023-10-10T08:57:28.123Z,12.43
2023-10-10T09:02:59.616Z,12.64
2023-10-10T09:08:56.471Z,12.69
2023-10-10T09:15:48.015Z,12.82
2023-10-10T09:21:47.986Z,13.01
2023-10-10T09:28:05.704Z,13.19
2023-10-10T09:34:05.455Z,13.34
2023-10-10T09:39:43.097Z,13.32
2023-10-10T09:45:15.488Z,13.30
2023-10-10T09:50:51.959Z,13.19
2023-10-10T09:56:57.482Z,13.23
2023-10-10T10:02:42.214Z,13.50
2023-10-10T10:08:38.796Z,13.69
2023-10-10T10:15:09.017Z,13.77
2023-10-10T10:20:25.301Z,13.89
2023-10-10T10:25:53.745Z,13.85
2023-10-10T10:31:33.187Z,13.73
2023-10-10T10:37:24.550Z,13.64
2023-10-10T10:42:49.915Z,13.66
2023-10-10T10:49:00.380Z,13.58
2023-10-10T10:54:09.136Z,13.61
2023-10-10T10:59:14.352Z,13.73
2023-10-10T11:04:40.370Z,13.94
2023-10-10T11:10:09.565Z,14.01
2023-10-10T11:15:17.413Z,14.02
2023-10-10T11:20:39.286Z,14.04
2023-10-10T11:25:48.072Z,14.11
2023-10-10T11:31:00.242Z,14.18
2023-10-10T11:36:51.427Z,14.28
2023-10-10T11:41:55.995Z,14.40
2023-10-10T11:47:33.822Z,14.47
2023-10-10T11:53:21.378Z,14.77
2023-10-10T11:58:54.312Z,15.13
2023-10-10T12:04:09.783Z,15.47
2023-10-10T12:10:08.883Z,15.73
2023-10-10T12:22:18.300Z,16.47
2023-10-10T12:27:41.468Z,16.71
2023-10-10T12:33:09.203Z,17.14
2023-10-10T12:38:22.553Z,17.13
2023-10-10T12:43:38.770Z,16.98
2023-10-10T12:48:44.798Z,16.64
2023-10-10T12:53:47.483Z,16.36
2023-10-10T12:58:59.411Z,16.31
2023-10-10T13:04:31.389Z,16.40
2023-10-10T13:09:43.847Z,16.52
2023-10-10T13:14:54.453Z,16.71
2023-10-10T13:20:30.768Z,16.85
2023-10-10T13:25:47.916Z,17.10
2023-10-10T13:32:12.773Z,17.39
2023-10-10T13:37:37.930Z,17.43
2023-10-10T13:43:00.872Z,17.24
2023-10-10T13:53:16.249Z,17.12
2023-10-10T13:58:32.611Z,17.06
2023-10-10T14:03:46.745Z,16.82
2023-10-10T14:09:00.438Z,16.65
2023-10-10T14:14:12.188Z,16.59
2023-10-10T14:19:14.905Z,16.57
2023-10-10T14:24:17.498Z,16.50
2023-10-10T14:29:22.695Z,16.42
2023-10-10T14:34:27.783Z,16.42
2023-10-10T14:39:54.127Z,16.42
2023-10-10T14:44:56.846Z,16.39
2023-10-10T14:50:11.406Z,16.28
2023-10-10T14:55:29.112Z,16.13
2023-10-10T15:00:58.521Z,15.96
2023-10-10T15:06:10.315Z,15.82
2023-10-10T15:11:13.388Z,15.76
2023-10-10T15:16:16.309Z,15.76
2023-10-10T15:21:28.498Z,15.75
2023-10-10T15:26:32.719Z,15.69
2023-10-10T15:31:37.810Z,15.63
2023-10-10T15:36:46.103Z,15.57
2023-10-10T15:41:52.419Z,15.54
2023-10-10T15:46:59.927Z,15.51
2023-10-10T15:52:05.503Z,15.50
2023-10-10T15:57:10.761Z,15.47
2023-10-10T16:02:15.401Z,15.41
2023-10-10T16:07:19.580Z,15.36
2023-10-10T16:12:22.061Z,15.31
2023-10-10T16:17:25.219Z,15.18
2023-10-10T16:22:29.285Z,15.07
2023-10-10T16:27:34.602Z,14.98
2023-10-10T16:32:43.157Z,14.89
2023-10-10T16:37:51.016Z,14.80
2023-10-10T16:42:57.797Z,14.71
2023-10-10T16:48:09.843Z,14.62
2023-10-10T16:53:14.982Z,14.52
2023-10-10T16:58:17.874Z,14.44
2023-10-10T17:03:20.955Z,14.37
2023-10-10T17:08:31.213Z,14.28
2023-10-10T17:13:39.825Z,14.17
2023-10-10T17:18:54.054Z,14.11
2023-10-10T17:24:01.221Z,14.08
2023-10-10T17:29:05.929Z,14.04
2023-10-10T17:34:34.019Z,14.00
2023-10-10T17:39:39.429Z,13.97
2023-10-10T17:44:54.415Z,13.91
2023-10-10T17:50:00.638Z,13.86
2023-10-10T17:55:08.970Z,13.81
2023-10-10T18:00:36.304Z,13.74
2023-10-10T18:05:43.536Z,13.68
2023-10-10T18:10:48.813Z,13.66
2023-10-10T18:15:51.218Z,13.64
2023-10-10T18:20:55.928Z,13.60
2023-10-10T18:26:14.635Z,13.53
2023-10-10T18:31:26.270Z,13.42
2023-10-10T18:36:28.966Z,13.30
2023-10-10T18:41:33.437Z,13.17
2023-10-10T18:46:37.375Z,13.04
2023-10-10T18:51:40.167Z,12.93
2023-10-10T18:56:43.602Z,12.81
2023-10-10T19:01:49.660Z,12.66
2023-10-10T19:06:56.012Z,12.53
2023-10-10T19:11:59.108Z,12.45
2023-10-10T19:17:02.776Z,12.35
2023-10-10T19:22:09.091Z,12.24
2023-10-10T19:27:13.750Z,12.09
2023-10-10T19:32:19.838Z,11.97
2023-10-10T19:37:22.676Z,11.88
2023-10-10T19:42:28.023Z,11.86
2023-10-10T19:47:32.896Z,11.89
2023-10-10T19:52:41.694Z,11.90
2023-10-10T19:57:47.863Z,11.89
2023-10-10T20:02:58.021Z,11.87
2023-10-10T20:08:21.565Z,11.84
2023-10-10T20:13:23.767Z,11.79
2023-10-10T20:18:26.794Z,11.71
2023-10-10T20:23:28.829Z,11.60
2023-10-10T20:28:30.932Z,11.51
2023-10-10T20:33:34.842Z,11.43
2023-10-10T20:38:37.243Z,11.38
2023-10-10T20:43:48.530Z,11.40
2023-10-10T20:49:48.766Z,11.42
2023-10-10T20:55:19.990Z,11.47
2023-10-10T21:00:35.758Z,11.50
2023-10-10T21:05:44.717Z,11.54
2023-10-10T21:11:18.888Z,11.55
2023-10-10T21:16:48.654Z,11.53
2023-10-10T21:22:31.435Z,11.50
2023-10-10T21:27:35.766Z,11.48
2023-10-10T21:32:41.840Z,11.46
2023-10-10T21:37:44.924Z,11.40
2023-10-10T21:43:13.979Z,11.36
2023-10-10T21:48:47.277Z,11.31
2023-10-10T21:54:00.426Z,11.28
2023-10-10T21:59:08.102Z,11.23
2023-10-10T22:04:24.092Z,11.18
2023-10-10T22:09:33.917Z,11.13
2023-10-10T22:14:40.771Z,11.09
2023-10-10T22:19:58.579Z,11.07
2023-10-10T22:25:04.109Z,11.03
2023-10-10T22:30:15.070Z,11.00
2023-10-10T22:35:19.703Z,10.97
2023-10-10T22:40:26.655Z,10.92
2023-10-10T22:45:34.320Z,10.90
2023-10-10T22:50:38.036Z,10.89
2023-10-10T22:55:50.388Z,10.90
2023-10-10T23:00:58.204Z,10.92
2023-10-10T23:06:15.762Z,10.95
2023-10-10T23:11:19.450Z,10.99
2023-10-10T23:16:25.802Z,11.04
2023-10-10T23:21:44.780Z,11.09
2023-10-10T23:26:51.841Z,11.15
2023-10-10T23:32:09.954Z,11.19
2023-10-10T23:37:26.452Z,11.24
2023-10-10T23:42:37.304Z,11.29
2023-10-10T23:48:03.733Z,11.35
2023-10-10T23:53:25.666Z,11.41
2023-10-10T23:59:33.457Z,11.48
